Time;durP1;ratioP1;P1;durP2;ratioP2;P2;SDS_P1;SDS_P2;PMS_P1;PMS_P2;Temp;Humidity;BMP_temperature;BMP_pressure;BME280_temperature;BME280_humidity;BME280_pressure;Samples;Min_cycle;Max_cycle;Signal;HPM_P1;HPM_P2
2023/06/28 00:00:39;;;;;;;0.65;0.52;;;;;;;30.53;32.12;101798.63;5041090;27;96971;-79
2023/06/28 00:03:11;;;;;;;1.20;0.70;;;;;;;30.53;31.91;101805.00;5046023;27;98073;-79
2023/06/28 00:05:38;;;;;;;1.52;0.63;;;;;;;30.52;32.12;101810.78;5036500;27;97001;-79
2023/06/28 00:08:04;;;;;;;2.63;0.80;;;;;;;30.52;32.14;101808.00;5031562;27;96705;-78
2023/06/28 00:10:31;;;;;;;1.20;0.60;;;;;;;30.52;31.86;101802.47;5036668;27;96765;-79
2023/06/28 00:12:58;;;;;;;1.20;0.60;;;;;;;30.51;32.11;101806.28;5037343;27;97625;-79
2023/06/28 00:15:24;;;;;;;1.83;0.80;;;;;;;30.51;32.13;101801.59;5045130;27;96717;-78
2023/06/28 00:17:51;;;;;;;1.33;0.60;;;;;;;30.51;32.11;101809.91;5050477;27;98244;-79
2023/06/28 00:20:18;;;;;;;0.70;0.50;;;;;;;30.51;32.22;101804.38;5034150;27;96669;-79
2023/06/28 00:22:44;;;;;;;1.38;0.70;;;;;;;30.50;32.22;101807.38;5052596;27;99550;-79
2023/06/28 00:25:11;;;;;;;1.02;0.60;;;;;;;30.50;32.14;101807.38;5051240;27;96645;-79
2023/06/28 00:27:37;;;;;;;1.52;0.57;;;;;;;30.50;32.26;101801.81;5043478;27;96819;-79
2023/06/28 00:30:06;;;;;;;1.10;0.70;;;;;;;30.49;32.28;101806.50;5051669;27;96970;-79
2023/06/28 00:32:32;;;;;;;1.27;0.68;;;;;;;30.50;32.19;101804.59;5050214;27;99387;-79
2023/06/28 00:34:59;;;;;;;1.40;1.08;;;;;;;30.50;32.19;101804.59;5051861;27;97810;-79
2023/06/28 00:37:25;;;;;;;2.13;0.50;;;;;;;30.49;32.30;101808.44;5050892;27;99135;-79
2023/06/28 00:39:52;;;;;;;1.73;0.70;;;;;;;30.49;32.18;101805.66;5051832;27;97092;-79
2023/06/28 00:42:19;;;;;;;1.23;0.80;;;;;;;30.49;31.95;101805.66;5035196;27;96573;-79
2023/06/28 00:44:46;;;;;;;2.42;0.73;;;;;;;30.49;32.06;101808.44;5016024;27;100501;-80
2023/06/28 00:47:14;;;;;;;1.35;0.60;;;;;;;30.49;32.24;101811.22;5034943;27;96724;-79
2023/06/28 00:49:43;;;;;;;1.17;0.75;;;;;;;30.49;31.96;101811.22;5050787;27;96660;-79
2023/06/28 00:52:11;;;;;;;0.55;0.40;;;;;;;30.48;32.27;101812.28;5037820;27;96838;-79
2023/06/28 00:54:39;;;;;;;1.10;0.70;;;;;;;30.48;32.36;101809.50;5052776;27;97175;-79
2023/06/28 00:57:07;;;;;;;0.80;0.50;;;;;;;30.47;32.10;101811.41;5052006;27;97182;-79
2023/06/28 00:59:34;;;;;;;2.17;0.82;;;;;;;30.47;32.30;101813.31;5035144;27;97670;-79
2023/06/28 01:02:02;;;;;;;1.48;0.57;;;;;;;30.48;32.23;101803.97;5049926;27;100476;-79
2023/06/28 01:04:28;;;;;;;0.75;0.57;;;;;;;30.46;32.24;101809.69;5052154;27;96714;-79
2023/06/28 01:06:59;;;;;;;1.08;0.60;;;;;;;30.47;32.13;101813.31;5050440;27;97001;-79
2023/06/28 01:09:28;;;;;;;1.30;0.63;;;;;;;30.47;32.05;101807.75;5052438;27;96984;-79
2023/06/28 01:11:56;;;;;;;1.48;0.70;;;;;;;30.46;32.21;101806.06;5040227;27;96784;-79
2023/06/28 01:14:24;;;;;;;1.40;0.60;;;;;;;30.46;32.27;101800.53;5045627;27;99352;-79
2023/06/28 01:16:55;;;;;;;1.00;0.60;;;;;;;30.45;32.24;101796.91;5051810;27;96900;-79
2023/06/28 01:19:24;;;;;;;1.02;0.60;;;;;;;30.45;32.21;101805.22;5032886;27;97018;-79
2023/06/28 01:22:03;;;;;;;0.88;0.60;;;;;;;30.46;32.18;101800.53;5032831;27;96789;-79
2023/06/28 01:24:29;;;;;;;0.88;0.55;;;;;;;30.43;32.10;101796.25;5032243;27;98533;-79
2023/06/28 01:26:58;;;;;;;0.93;0.60;;;;;;;30.43;32.24;101793.50;5050945;27;96667;-79
2023/06/28 01:29:26;;;;;;;1.58;0.60;;;;;;;30.43;32.19;101787.94;5053309;27;96768;-79
2023/06/28 01:31:56;;;;;;;0.82;0.50;;;;;;;30.45;32.24;101793.28;5051530;27;99859;-79
2023/06/28 01:34:24;;;;;;;0.90;0.65;;;;;;;30.43;32.22;101785.19;5051440;27;99689;-79
2023/06/28 01:36:54;;;;;;;1.15;0.60;;;;;;;30.43;32.22;101796.25;5053100;27;97115;-79
2023/06/28 01:39:22;;;;;;;0.70;0.40;;;;;;;30.42;32.39;101802.88;5053339;27;97086;-79
2023/06/28 01:41:51;;;;;;;0.80;0.47;;;;;;;30.43;32.23;101800.97;5053060;27;96623;-79
2023/06/28 01:44:18;;;;;;;1.38;0.70;;;;;;;30.42;32.06;101800.09;5051101;27;99165;-79
2023/06/28 01:46:45;;;;;;;1.52;0.85;;;;;;;30.42;32.23;101796.47;5051368;27;97078;-79
2023/06/28 01:49:12;;;;;;;0.73;0.47;;;;;;;30.42;32.28;101794.56;5047997;27;96732;-79
2023/06/28 01:51:39;;;;;;;0.95;0.60;;;;;;;30.41;32.50;101794.78;5016545;28;99690;-79
2023/06/28 01:54:07;;;;;;;1.33;0.50;;;;;;;30.42;32.16;101796.47;5034782;27;96894;-80
2023/06/28 01:56:33;;;;;;;1.80;0.63;;;;;;;30.42;32.32;101802.03;5050831;27;96897;-79
2023/06/28 01:59:00;;;;;;;1.08;0.55;;;;;;;30.41;32.16;101809.50;5033793;27;97138;-79
2023/06/28 02:01:27;;;;;;;0.75;0.35;;;;;;;30.40;32.31;101799.47;5016843;27;100134;-79
2023/06/28 02:03:54;;;;;;;1.42;0.73;;;;;;;30.41;32.17;101797.56;5047555;27;97206;-80
2023/06/28 02:06:21;;;;;;;1.45;0.60;;;;;;;30.41;32.34;101801.16;5034881;27;97152;-79
2023/06/28 02:08:48;;;;;;;1.25;0.70;;;;;;;30.40;32.21;101801.38;5037750;27;96834;-79
2023/06/28 02:11:14;;;;;;;1.45;0.70;;;;;;;30.40;32.43;101801.38;5048577;27;96904;-79
2023/06/28 02:13:41;;;;;;;1.50;0.57;;;;;;;30.40;32.10;101804.16;5036875;27;98647;-80
2023/06/28 02:16:07;;;;;;;1.40;0.70;;;;;;;30.40;32.18;101801.38;5041806;27;96532;-79
2023/06/28 02:18:35;;;;;;;1.05;0.63;;;;;;;30.39;32.45;101803.31;5052927;27;97304;-79
2023/06/28 02:21:01;;;;;;;0.70;0.55;;;;;;;30.39;32.11;101799.69;5051700;27;98489;-79
2023/06/28 02:23:28;;;;;;;0.75;0.47;;;;;;;30.39;32.16;101794.16;5051695;27;99101;-79
2023/06/28 02:25:55;;;;;;;1.90;0.65;;;;;;;30.39;32.15;101803.31;5052604;27;96959;-79
2023/06/28 02:28:24;;;;;;;0.65;0.50;;;;;;;30.38;32.30;101798.84;5053915;27;97414;-79
2023/06/28 02:30:51;;;;;;;1.10;0.70;;;;;;;30.38;32.20;101801.59;5052723;27;96868;-79
2023/06/28 02:33:22;;;;;;;1.15;0.52;;;;;;;30.38;32.34;101796.06;5052182;27;100228;-80
2023/06/28 02:35:49;;;;;;;0.77;0.52;;;;;;;30.37;32.43;101797.13;5052832;27;97113;-80
2023/06/28 02:38:15;;;;;;;0.90;0.50;;;;;;;30.38;32.30;101789.66;5052877;27;96770;-79
2023/06/28 02:40:42;;;;;;;0.98;0.45;;;;;;;30.37;32.27;101794.34;5050515;27;96870;-79
2023/06/28 02:43:09;;;;;;;0.82;0.50;;;;;;;30.37;32.23;101794.34;5035545;27;99760;-80
2023/06/28 02:45:35;;;;;;;0.65;0.40;;;;;;;30.36;32.40;101798.19;5052547;27;96849;-79
2023/06/28 02:48:02;;;;;;;1.17;0.50;;;;;;;30.36;32.39;101790.75;5034256;27;96359;-80
2023/06/28 02:50:28;;;;;;;0.88;0.40;;;;;;;30.36;32.44;101789.88;5051505;27;100517;-79
2023/06/28 02:53:01;;;;;;;1.15;0.50;;;;;;;30.35;32.40;101797.34;5052575;27;98852;-79
2023/06/28 02:55:28;;;;;;;0.68;0.43;;;;;;;30.35;32.27;101789.03;5029103;27;96622;-79
2023/06/28 02:57:58;;;;;;;1.52;0.50;;;;;;;30.35;32.33;101788.19;5046502;27;96924;-79
2023/06/28 03:00:25;;;;;;;0.80;0.52;;;;;;;30.35;32.42;101789.03;5049502;27;99351;-80
2023/06/28 03:02:51;;;;;;;0.77;0.47;;;;;;;30.35;32.35;101788.19;5051702;27;100745;-79
2023/06/28 03:05:20;;;;;;;1.00;0.60;;;;;;;30.34;32.34;101779.00;5051282;27;96800;-79
2023/06/28 03:07:47;;;;;;;0.93;0.50;;;;;;;30.34;32.40;101784.56;5047601;27;97099;-79
2023/06/28 03:10:14;;;;;;;0.90;0.50;;;;;;;30.34;32.37;101786.47;5053105;27;97732;-79
2023/06/28 03:12:41;;;;;;;0.60;0.50;;;;;;;30.33;32.46;101785.63;5029323;27;99473;-79
2023/06/28 03:15:10;;;;;;;0.93;0.50;;;;;;;30.34;32.31;101784.56;5041531;27;96941;-79
2023/06/28 03:17:36;;;;;;;0.93;0.63;;;;;;;30.33;32.31;101779.22;5027625;28;96924;-79
2023/06/28 03:20:08;;;;;;;1.08;0.60;;;;;;;30.33;32.22;101780.09;5034579;27;98971;-79
2023/06/28 03:22:34;;;;;;;0.73;0.47;;;;;;;30.33;32.39;101780.09;5021163;27;99696;-79
2023/06/28 03:25:04;;;;;;;0.95;0.40;;;;;;;30.33;32.37;101779.22;5045647;27;96680;-80
2023/06/28 03:27:30;;;;;;;0.88;0.55;;;;;;;30.32;32.36;101777.53;5052224;27;96767;-80
2023/06/28 03:29:57;;;;;;;0.82;0.40;;;;;;;30.32;32.31;101783.94;5051608;27;100526;-79
2023/06/28 03:32:24;;;;;;;1.02;0.60;;;;;;;30.31;32.25;101776.69;5033584;27;99096;-79
2023/06/28 03:34:53;;;;;;;0.77;0.50;;;;;;;30.31;32.52;101768.38;5050106;27;96934;-79
2023/06/28 03:37:19;;;;;;;0.80;0.52;;;;;;;30.32;32.41;101777.53;5048120;27;97022;-80
2023/06/28 03:39:48;;;;;;;1.02;0.47;;;;;;;30.32;32.34;101777.53;5050018;27;98989;-79
2023/06/28 03:42:15;;;;;;;1.23;0.68;;;;;;;30.31;32.53;101770.28;5048368;27;98301;-80
2023/06/28 03:44:42;;;;;;;2.63;1.17;;;;;;;30.30;32.42;101766.66;5050705;27;97078;-79
2023/06/28 03:47:12;;;;;;;0.70;0.50;;;;;;;30.30;32.46;101774.13;5050565;27;96790;-79
2023/06/28 03:49:40;;;;;;;0.80;0.50;;;;;;;30.30;32.40;101769.44;5049895;27;97718;-79
2023/06/28 03:52:07;;;;;;;0.98;0.50;;;;;;;30.30;32.36;101769.44;5047886;27;98035;-79
2023/06/28 03:54:33;;;;;;;0.50;0.40;;;;;;;30.30;32.29;101769.44;5041041;27;96816;-79
2023/06/28 03:57:00;;;;;;;0.75;0.50;;;;;;;30.30;32.54;101769.44;5033459;27;97996;-79
2023/06/28 03:59:26;;;;;;;1.25;0.68;;;;;;;30.29;32.33;101767.72;5013633;28;96788;-80
2023/06/28 04:01:53;;;;;;;0.88;0.57;;;;;;;30.29;32.43;101764.09;5036715;27;96849;-80
2023/06/28 04:04:20;;;;;;;0.70;0.45;;;;;;;30.29;32.32;101767.72;5053760;27;97109;-80
2023/06/28 04:06:46;;;;;;;0.98;0.40;;;;;;;30.29;32.55;101767.72;5034682;27;96899;-79
2023/06/28 04:09:13;;;;;;;0.60;0.50;;;;;;;30.27;32.26;101761.56;5032132;27;97921;-79
2023/06/28 04:11:40;;;;;;;0.55;0.40;;;;;;;30.28;32.55;101767.94;5038398;27;97657;-80
2023/06/28 04:14:06;;;;;;;1.27;0.60;;;;;;;30.27;32.53;101764.31;5053371;27;96684;-79
2023/06/28 04:16:33;;;;;;;0.50;0.30;;;;;;;30.28;32.31;101765.19;5051633;27;96628;-80
2023/06/28 04:19:00;;;;;;;0.52;0.40;;;;;;;30.27;32.49;101758.78;5051177;27;98265;-79
2023/06/28 04:21:26;;;;;;;1.27;0.43;;;;;;;30.28;32.42;101754.09;5046407;27;96755;-79
2023/06/28 04:23:56;;;;;;;2.45;0.63;;;;;;;30.27;32.60;101760.69;5052861;27;96811;-79
2023/06/28 04:26:23;;;;;;;1.50;0.70;;;;;;;30.27;32.52;101760.69;5032460;27;96917;-79
2023/06/28 04:28:49;;;;;;;0.68;0.40;;;;;;;30.27;32.30;101769.00;5051715;27;96706;-79
2023/06/28 04:31:16;;;;;;;0.50;0.40;;;;;;;30.26;32.54;101759.84;5050470;27;96654;-79
2023/06/28 04:33:42;;;;;;;0.80;0.43;;;;;;;30.27;32.64;101763.47;5051096;27;96826;-80
2023/06/28 04:36:09;;;;;;;0.45;0.40;;;;;;;30.26;32.62;101759.00;5053348;27;97533;-79
2023/06/28 04:38:37;;;;;;;1.33;0.50;;;;;;;30.26;32.38;101761.78;5052197;27;98068;-79
2023/06/28 04:41:03;;;;;;;0.43;0.30;;;;;;;30.25;32.42;101757.28;5050921;27;97282;-79
2023/06/28 04:43:40;;;;;;;0.70;0.43;;;;;;;30.26;32.39;101770.09;5052636;27;97012;-79
2023/06/28 04:46:11;;;;;;;0.65;0.40;;;;;;;30.24;32.54;101772.22;5045609;27;96859;-80
2023/06/28 04:48:41;;;;;;;1.25;0.60;;;;;;;30.24;32.65;101763.91;5046888;27;96674;-80
2023/06/28 04:51:08;;;;;;;0.90;0.50;;;;;;;30.24;32.38;101763.91;5051367;27;98490;-80
2023/06/28 04:53:35;;;;;;;0.68;0.50;;;;;;;30.24;32.55;101766.69;5057408;27;96977;-79
2023/06/28 04:56:01;;;;;;;0.50;0.40;;;;;;;30.22;32.50;101769.66;5057254;27;96568;-79
2023/06/28 04:58:29;;;;;;;0.80;0.60;;;;;;;30.23;32.61;101765.81;5049928;27;96880;-80
2023/06/28 05:00:56;;;;;;;0.73;0.43;;;;;;;30.22;32.39;101766.91;5053419;27;97521;-80
2023/06/28 05:03:27;;;;;;;0.88;0.50;;;;;;;30.22;32.89;101766.03;5049011;27;96766;-80
2023/06/28 05:05:54;;;;;;;0.85;0.55;;;;;;;30.20;32.71;101769.03;5053441;27;96816;-79
2023/06/28 05:08:21;;;;;;;0.55;0.35;;;;;;;30.22;32.57;101768.81;5050981;27;96864;-79
2023/06/28 05:10:48;;;;;;;0.60;0.40;;;;;;;30.21;32.69;101762.41;5052510;27;97494;-79
2023/06/28 05:13:15;;;;;;;0.93;0.57;;;;;;;30.21;32.66;101759.66;5051458;27;96779;-79
2023/06/28 05:15:42;;;;;;;0.63;0.50;;;;;;;30.22;32.78;101766.03;5047249;27;96826;-80
2023/06/28 05:18:09;;;;;;;1.42;0.50;;;;;;;30.21;32.57;101764.34;5038468;27;96891;-79
2023/06/28 05:20:35;;;;;;;1.10;0.63;;;;;;;30.21;32.68;101765.19;5056185;27;98719;-79
2023/06/28 05:23:17;;;;;;;0.40;0.30;;;;;;;30.22;32.95;101763.28;5050018;27;96894;-79
2023/06/28 05:25:44;;;;;;;1.27;0.57;;;;;;;30.20;32.52;101763.50;5046731;27;96552;-79
2023/06/28 05:28:14;;;;;;;1.00;0.50;;;;;;;30.21;32.52;101761.56;5050553;27;97387;-79
2023/06/28 05:30:41;;;;;;;0.77;0.60;;;;;;;30.20;32.67;101766.25;5060690;27;98895;-79
2023/06/28 05:33:09;;;;;;;0.70;0.40;;;;;;;30.20;32.49;101762.63;5039703;27;96693;-79
2023/06/28 05:35:36;;;;;;;0.90;0.55;;;;;;;30.19;32.56;101767.31;5056137;27;98064;-80
2023/06/28 05:38:04;;;;;;;0.77;0.40;;;;;;;30.19;32.63;101758.16;5047121;27;97658;-79
2023/06/28 05:40:32;;;;;;;0.60;0.40;;;;;;;30.19;32.64;101763.72;5042130;27;96782;-79
2023/06/28 05:42:59;;;;;;;0.80;0.40;;;;;;;30.20;32.66;101770.94;5039248;27;96664;-79
2023/06/28 05:45:26;;;;;;;1.10;0.40;;;;;;;30.19;32.72;101766.47;5044321;27;96604;-78
2023/06/28 05:47:53;;;;;;;0.88;0.55;;;;;;;30.19;32.75;101761.78;5040625;27;97999;-79
2023/06/28 05:50:23;;;;;;;0.55;0.40;;;;;;;30.18;32.31;101762.00;5049776;27;96667;-78
2023/06/28 05:52:50;;;;;;;0.70;0.50;;;;;;;30.18;32.68;101760.09;5054488;27;96717;-79
2023/06/28 05:55:16;;;;;;;0.75;0.50;;;;;;;30.17;32.79;101763.91;5051089;27;96812;-79
2023/06/28 05:57:44;;;;;;;0.85;0.50;;;;;;;30.18;32.58;101756.47;5029687;27;98418;-79
2023/06/28 06:00:12;;;;;;;0.80;0.52;;;;;;;30.17;32.64;101761.16;5041710;27;97880;-79
2023/06/28 06:02:39;;;;;;;0.60;0.40;;;;;;;30.18;32.67;101764.78;5048992;27;96927;-79
2023/06/28 06:05:07;;;;;;;0.80;0.50;;;;;;;30.17;32.67;101757.53;5046533;27;96903;-79
2023/06/28 06:07:39;;;;;;;1.20;0.50;;;;;;;30.17;32.79;101761.16;5043044;27;100252;-79
2023/06/28 06:10:10;;;;;;;0.77;0.50;;;;;;;30.16;32.61;101756.69;5042164;27;96929;-79
2023/06/28 06:12:37;;;;;;;1.95;0.50;;;;;;;30.15;32.75;101760.50;5049851;27;97490;-79
2023/06/28 06:15:05;;;;;;;1.27;0.60;;;;;;;30.16;32.65;101755.81;5044488;27;97284;-79
2023/06/28 06:17:32;;;;;;;1.55;0.50;;;;;;;30.15;32.67;101749.44;5033783;27;98772;-79
2023/06/28 06:20:00;;;;;;;1.15;0.60;;;;;;;30.16;32.71;101758.59;5052365;27;98030;-80
2023/06/28 06:22:27;;;;;;;0.52;0.47;;;;;;;30.16;32.71;101751.13;5048937;27;97461;-79
2023/06/28 06:24:54;;;;;;;1.67;0.43;;;;;;;30.15;32.62;101754.13;5051636;27;96827;-79
2023/06/28 06:27:20;;;;;;;0.82;0.50;;;;;;;30.15;32.88;101759.66;5034274;27;98973;-79
2023/06/28 06:29:47;;;;;;;0.63;0.40;;;;;;;30.16;32.88;101758.59;5048042;27;96715;-79
2023/06/28 06:32:13;;;;;;;0.57;0.32;;;;;;;30.15;32.70;101756.91;5049480;27;97062;-79
2023/06/28 06:34:40;;;;;;;0.80;0.35;;;;;;;30.15;32.80;101760.50;5045975;27;97987;-79
2023/06/28 06:37:11;;;;;;;1.48;0.93;;;;;;;30.15;32.82;101770.75;5016157;27;99646;-79
2023/06/28 06:39:39;;;;;;;0.80;0.52;;;;;;;30.14;32.57;101769.03;5034275;27;97189;-79
2023/06/28 06:42:06;;;;;;;0.88;0.50;;;;;;;30.14;32.67;101763.50;5032780;27;96836;-79
2023/06/28 06:44:34;;;;;;;1.20;0.52;;;;;;;30.14;32.85;101761.59;5019161;27;96772;-79
2023/06/28 06:47:01;;;;;;;0.45;0.40;;;;;;;30.13;32.74;101762.66;5045107;27;98114;-79
2023/06/28 06:49:28;;;;;;;1.40;0.65;;;;;;;30.14;32.80;101763.50;5050457;27;97852;-79
2023/06/28 06:51:54;;;;;;;0.88;0.50;;;;;;;30.14;32.74;101763.50;5040811;27;97318;-79
2023/06/28 06:54:21;;;;;;;1.10;0.60;;;;;;;30.14;32.83;101763.50;5046432;27;96590;-79
2023/06/28 06:56:48;;;;;;;0.85;0.50;;;;;;;30.13;32.71;101757.13;5005518;27;1155222;-79
2023/06/28 06:59:16;;;;;;;1.27;0.45;;;;;;;30.14;32.71;101755.19;5046349;27;97236;-79
2023/06/28 07:01:43;;;;;;;1.00;0.47;;;;;;;30.13;32.81;101759.03;5044267;27;96851;-79
2023/06/28 07:04:09;;;;;;;1.10;0.47;;;;;;;30.12;32.55;101760.94;5046583;27;96832;-79
2023/06/28 07:06:36;;;;;;;0.50;0.40;;;;;;;30.13;32.80;101764.56;5044185;27;98010;-79
2023/06/28 07:09:03;;;;;;;0.70;0.50;;;;;;;30.12;32.70;101766.50;5044576;27;100534;-79
2023/06/28 07:11:30;;;;;;;0.85;0.50;;;;;;;30.12;32.87;101769.25;5044947;27;96635;-79
2023/06/28 07:13:56;;;;;;;1.90;0.50;;;;;;;30.13;32.86;101767.34;5044671;27;96922;-79
2023/06/28 07:16:23;;;;;;;1.38;0.80;;;;;;;30.12;32.81;101760.94;5049008;27;96838;-79
2023/06/28 07:18:50;;;;;;;0.80;0.52;;;;;;;30.13;32.64;101761.81;5054147;27;97404;-79
2023/06/28 07:21:21;;;;;;;1.48;0.40;;;;;;;30.13;32.79;101764.56;5036208;27;96803;-79
2023/06/28 07:23:47;;;;;;;1.10;0.47;;;;;;;30.12;32.77;101763.72;5053815;27;97177;-79
2023/06/28 07:26:14;;;;;;;0.93;0.60;;;;;;;30.12;32.59;101763.72;5048467;27;96877;-79
2023/06/28 07:28:41;;;;;;;1.02;0.50;;;;;;;30.11;32.75;101762.00;5052689;27;97220;-79
2023/06/28 07:31:08;;;;;;;0.95;0.50;;;;;;;30.11;32.77;101764.78;5053585;27;96624;-79
2023/06/28 07:33:35;;;;;;;0.60;0.30;;;;;;;30.11;32.74;101764.78;5043428;27;97073;-79
2023/06/28 07:36:02;;;;;;;0.93;0.45;;;;;;;30.11;32.89;101764.78;5049790;27;96714;-79
2023/06/28 07:38:28;;;;;;;1.35;0.60;;;;;;;30.12;32.99;101762.88;5053743;27;97291;-79
2023/06/28 07:40:55;;;;;;;1.38;0.50;;;;;;;30.11;32.91;101750.94;5051912;27;97156;-79
2023/06/28 07:43:21;;;;;;;2.50;0.60;;;;;;;30.11;33.02;101756.47;5052043;27;96600;-79
2023/06/28 07:45:48;;;;;;;0.90;0.50;;;;;;;30.10;32.89;101754.78;5051640;27;97035;-80
2023/06/28 07:48:15;;;;;;;0.80;0.40;;;;;;;30.11;32.98;101759.25;5052453;27;97668;-79
2023/06/28 07:50:42;;;;;;;0.95;0.45;;;;;;;30.10;32.74;101757.53;5053217;27;96778;-79
2023/06/28 07:53:09;;;;;;;1.08;0.75;;;;;;;30.11;32.83;101763.94;5055035;27;97315;-79
2023/06/28 07:55:36;;;;;;;1.55;0.60;;;;;;;30.10;32.93;101759.47;5037863;27;97894;-79
2023/06/28 07:58:02;;;;;;;1.10;0.50;;;;;;;30.11;32.89;101773.09;5051138;27;99048;-79
2023/06/28 08:00:30;;;;;;;0.80;0.50;;;;;;;30.11;32.95;101775.00;5050360;27;97131;-79
2023/06/28 08:02:58;;;;;;;0.90;0.60;;;;;;;30.11;32.98;101763.94;5052214;27;97357;-79
2023/06/28 08:05:25;;;;;;;0.82;0.50;;;;;;;30.11;33.08;101767.56;5051882;27;96749;-79
2023/06/28 08:07:55;;;;;;;1.27;0.68;;;;;;;30.10;33.05;101763.09;5048598;27;97580;-78
2023/06/28 08:10:23;;;;;;;1.58;0.60;;;;;;;30.10;32.93;101774.16;5036929;27;97887;-78
2023/06/28 08:12:53;;;;;;;1.48;0.60;;;;;;;30.09;32.88;101769.69;5047149;27;96742;-79
2023/06/28 08:15:20;;;;;;;1.50;0.60;;;;;;;30.11;32.93;101766.72;5048956;27;97902;-79
2023/06/28 08:17:47;;;;;;;0.60;0.35;;;;;;;30.10;32.98;101759.47;5040913;27;97609;-78
2023/06/28 08:20:14;;;;;;;1.20;0.95;;;;;;;30.10;32.98;101760.31;5042496;27;96801;-78
2023/06/28 08:22:40;;;;;;;0.70;0.60;;;;;;;30.09;32.99;101766.06;5034016;27;96716;-78
2023/06/28 08:25:07;;;;;;;0.82;0.50;;;;;;;30.09;32.83;101766.91;5033654;27;96728;-78
2023/06/28 08:27:35;;;;;;;0.98;0.50;;;;;;;30.10;32.83;101765.84;5049382;27;97510;-78
2023/06/28 08:30:02;;;;;;;0.75;0.50;;;;;;;30.10;33.08;101765.00;5047646;27;96750;-78
2023/06/28 08:32:28;;;;;;;0.82;0.52;;;;;;;30.09;32.82;101760.53;5046584;27;96878;-78
2023/06/28 08:34:55;;;;;;;0.90;0.60;;;;;;;30.09;32.82;101764.16;5047569;27;97569;-78
2023/06/28 08:37:21;;;;;;;1.25;0.80;;;;;;;30.09;32.95;101764.16;5041685;27;97604;-78
2023/06/28 08:39:48;;;;;;;1.05;0.60;;;;;;;30.10;33.01;101762.22;5044497;27;98177;-78
2023/06/28 08:42:17;;;;;;;1.30;0.80;;;;;;;30.09;33.04;101761.38;5034091;27;96781;-79
2023/06/28 08:44:48;;;;;;;0.60;0.40;;;;;;;30.10;33.08;101763.09;5048598;27;99216;-78
2023/06/28 08:47:15;;;;;;;1.42;0.65;;;;;;;30.08;32.88;101765.22;5048035;27;96942;-79
2023/06/28 08:49:42;;;;;;;1.45;0.70;;;;;;;30.08;32.86;101759.69;5046580;27;96742;-78
2023/06/28 08:52:10;;;;;;;1.20;0.60;;;;;;;30.09;33.18;101763.31;5041410;27;97339;-79
2023/06/28 08:54:37;;;;;;;1.08;0.60;;;;;;;30.09;33.00;101763.31;5014536;27;98927;-78
2023/06/28 08:57:04;;;;;;;1.30;0.70;;;;;;;30.10;33.10;101765.00;5046172;27;96795;-78
2023/06/28 08:59:39;;;;;;;1.40;0.73;;;;;;;30.09;32.98;101766.91;5015272;27;96721;-78
2023/06/28 09:02:09;;;;;;;0.98;0.47;;;;;;;30.08;32.86;101759.69;5037820;27;96905;-78
2023/06/28 09:04:36;;;;;;;1.20;0.60;;;;;;;30.08;33.16;101754.13;5035649;27;96802;-79
2023/06/28 09:07:04;;;;;;;0.88;0.63;;;;;;;30.08;33.11;101756.91;5051652;27;98403;-79
2023/06/28 09:09:32;;;;;;;1.05;0.60;;;;;;;30.07;33.10;101755.19;5043149;27;96008;-78
2023/06/28 09:12:00;;;;;;;1.83;0.60;;;;;;;30.08;33.00;101756.06;5038380;27;97338;-78
2023/06/28 09:14:27;;;;;;;2.10;0.70;;;;;;;30.07;33.11;101760.75;5035450;27;96766;-79
2023/06/28 09:16:53;;;;;;;1.20;0.70;;;;;;;30.08;33.15;101756.06;5048171;27;97368;-79
2023/06/28 09:19:20;;;;;;;1.10;0.70;;;;;;;30.08;32.89;101753.28;5048983;27;96584;-79
2023/06/28 09:21:46;;;;;;;1.48;0.70;;;;;;;30.08;33.13;101758.81;5047706;27;96858;-78
2023/06/28 09:24:13;;;;;;;1.33;0.60;;;;;;;30.07;33.06;101755.19;5044908;27;97462;-78
2023/06/28 09:26:46;;;;;;;1.52;0.70;;;;;;;30.08;33.12;101750.50;5042581;27;100552;-78
2023/06/28 09:29:12;;;;;;;1.42;0.68;;;;;;;30.08;32.98;101756.06;5043741;27;96726;-78
2023/06/28 09:31:44;;;;;;;1.30;0.70;;;;;;;30.08;33.22;101753.28;5051027;27;96938;-78
2023/06/28 09:34:11;;;;;;;1.40;0.70;;;;;;;30.07;33.24;101754.34;5044499;27;97556;-78
2023/06/28 09:36:38;;;;;;;1.13;0.77;;;;;;;30.07;33.24;101746.03;5044794;27;96863;-78
2023/06/28 09:39:05;;;;;;;1.77;0.68;;;;;;;30.07;33.06;101751.59;5042859;27;96816;-78
2023/06/28 09:41:42;;;;;;;3.15;0.93;;;;;;;30.07;33.08;101752.44;5045905;27;96627;-78
2023/06/28 09:44:10;;;;;;;1.15;0.80;;;;;;;30.06;33.10;101753.50;5047792;27;96711;-78
2023/06/28 09:46:47;;;;;;;1.20;0.70;;;;;;;30.07;33.29;101760.75;5047179;27;96914;-79
2023/06/28 09:49:21;;;;;;;1.65;0.85;;;;;;;30.06;33.15;101753.50;5042275;27;96716;-79
2023/06/28 09:51:58;;;;;;;1.00;0.60;;;;;;;30.06;33.16;101756.28;5043326;27;96753;-78
2023/06/28 09:54:44;;;;;;;2.13;0.90;;;;;;;30.06;33.16;101759.03;5048946;27;97464;-78
2023/06/28 09:57:12;;;;;;;1.83;0.90;;;;;;;30.04;33.28;101764.78;5049126;27;96750;-78
2023/06/28 09:59:39;;;;;;;1.83;0.98;;;;;;;30.05;33.05;101754.56;5043557;27;96709;-79
2023/06/28 10:02:07;;;;;;;1.63;0.80;;;;;;;30.05;33.01;101751.78;5047553;27;96917;-78
2023/06/28 10:04:36;;;;;;;1.52;0.88;;;;;;;30.07;33.15;101759.91;5037669;27;96783;-79
2023/06/28 10:07:04;;;;;;;1.98;0.98;;;;;;;30.06;33.12;101758.19;5042205;27;97806;-79
2023/06/28 10:09:39;;;;;;;1.75;1.02;;;;;;;30.07;33.34;101754.34;5042313;27;97149;-79
2023/06/28 10:12:14;;;;;;;1.63;1.05;;;;;;;30.08;33.10;101756.06;5037280;27;96749;-78
2023/06/28 10:14:48;;;;;;;1.52;0.82;;;;;;;30.06;33.25;101744.34;5050666;27;98186;-79
2023/06/28 10:17:16;;;;;;;1.33;0.77;;;;;;;30.06;33.29;101752.66;5045548;27;96845;-79
2023/06/28 10:19:43;;;;;;;1.42;0.90;;;;;;;30.06;33.25;101750.72;5049710;27;96660;-79
2023/06/28 10:22:11;;;;;;;2.47;0.88;;;;;;;30.06;33.35;101745.19;5036206;27;97061;-79
2023/06/28 10:24:38;;;;;;;1.50;0.90;;;;;;;30.06;33.10;101747.09;5048371;27;96674;-79
2023/06/28 10:27:05;;;;;;;1.25;0.85;;;;;;;30.06;33.01;101747.09;5052653;27;97360;-79
2023/06/28 10:29:32;;;;;;;2.17;1.27;;;;;;;30.06;33.34;101750.72;5049128;27;96637;-79
2023/06/28 10:31:59;;;;;;;1.95;0.85;;;;;;;30.06;33.33;101750.72;5044390;27;97032;-79
2023/06/28 10:34:27;;;;;;;1.58;0.90;;;;;;;30.06;33.54;101739.66;5053157;27;97679;-79
2023/06/28 10:36:56;;;;;;;1.55;1.05;;;;;;;30.06;33.18;101742.41;5033166;27;97480;-78
2023/06/28 10:39:22;;;;;;;1.88;0.95;;;;;;;30.06;33.34;101744.34;5034621;27;96865;-78
2023/06/28 10:41:59;;;;;;;1.98;1.17;;;;;;;30.07;33.34;101738.59;5043064;27;100079;-78
2023/06/28 10:44:26;;;;;;;1.42;1.00;;;;;;;30.05;33.50;101737.94;5047817;27;96953;-79
2023/06/28 10:47:19;;;;;;;1.73;1.08;;;;;;;30.06;33.30;101739.66;5048004;27;96811;-78
2023/06/28 10:50:05;;;;;;;2.17;1.00;;;;;;;30.06;33.21;101738.78;5039285;27;97152;-78
2023/06/28 10:52:32;;;;;;;2.17;1.10;;;;;;;30.04;33.24;101739.88;5047388;27;96930;-78
2023/06/28 10:55:00;;;;;;;2.67;1.10;;;;;;;30.05;33.51;101732.41;5034299;27;98972;-78
2023/06/28 10:57:36;;;;;;;1.77;1.05;;;;;;;30.07;33.64;101746.03;5043482;27;96902;-78
2023/06/28 11:00:11;;;;;;;2.60;1.25;;;;;;;30.05;33.45;101732.41;5039378;27;96841;-79
2023/06/28 11:02:51;;;;;;;2.95;1.17;;;;;;;30.07;33.51;101734.97;5046189;27;97420;-79
2023/06/28 11:05:40;;;;;;;1.83;1.13;;;;;;;30.07;33.40;101729.41;5046851;27;100528;-80
2023/06/28 11:08:12;;;;;;;1.38;0.90;;;;;;;30.05;33.49;101726.88;5042997;27;96608;-79
2023/06/28 11:10:43;;;;;;;1.52;1.08;;;;;;;30.06;33.79;101730.50;5048754;27;96711;-80
2023/06/28 11:13:11;;;;;;;2.97;1.17;;;;;;;30.06;33.46;101727.72;5040204;27;96774;-79
2023/06/28 11:15:43;;;;;;;1.35;0.85;;;;;;;30.06;33.55;101725.78;5050099;27;97385;-80
2023/06/28 11:18:15;;;;;;;1.75;1.05;;;;;;;30.07;33.67;101715.56;5044506;27;97699;-80
2023/06/28 11:21:00;;;;;;;2.05;1.20;;;;;;;30.07;33.33;101716.41;5035022;27;96890;-79
2023/06/28 11:23:29;;;;;;;1.85;1.05;;;;;;;30.07;33.67;101721.09;5052735;27;96692;-80
2023/06/28 11:25:59;;;;;;;1.95;1.17;;;;;;;30.07;33.66;101719.19;5045512;27;97368;-79
2023/06/28 11:28:35;;;;;;;1.70;0.95;;;;;;;30.07;33.68;101721.97;5051615;27;97223;-79